createdAt,value
2023-05-06T00:01:41.265Z,21.12
2023-05-06T00:04:08.084Z,21.42
2023-05-06T00:06:34.952Z,21.61
2023-05-06T00:09:01.752Z,21.68
2023-05-06T00:11:28.562Z,21.80
2023-05-06T00:13:55.386Z,22.00
2023-05-06T00:16:22.206Z,22.07
2023-05-06T00:18:49.025Z,22.18
2023-05-06T00:21:15.905Z,22.18
2023-05-06T00:23:42.704Z,22.25
2023-05-06T00:26:09.462Z,22.41
2023-05-06T00:28:36.372Z,22.47
2023-05-06T00:31:03.178Z,22.56
2023-05-06T00:33:29.994Z,22.60
2023-05-06T00:35:56.811Z,22.65
2023-05-06T00:38:23.564Z,22.77
2023-05-06T00:40:50.796Z,21.86
2023-05-06T00:43:17.619Z,19.54
2023-05-06T00:45:44.411Z,18.33
2023-05-06T00:48:11.235Z,19.69
2023-05-06T00:50:38.052Z,20.74
2023-05-06T00:53:04.795Z,21.22
2023-05-06T00:55:31.592Z,21.57
2023-05-06T00:57:58.432Z,21.68
2023-05-06T01:00:25.529Z,21.81
2023-05-06T01:02:52.424Z,21.94
2023-05-06T01:05:20.885Z,21.93
2023-05-06T01:07:47.730Z,22.16
2023-05-06T01:10:18.701Z,22.44
2023-05-06T01:12:45.545Z,22.35
2023-05-06T01:15:12.415Z,22.37
2023-05-06T01:17:39.244Z,22.47
2023-05-06T01:20:06.261Z,22.68
2023-05-06T01:22:33.317Z,22.69
2023-05-06T01:25:00.192Z,22.65
2023-05-06T01:27:27.007Z,22.83
2023-05-06T01:29:53.799Z,20.51
2023-05-06T01:32:21.675Z,19.12
2023-05-06T01:34:48.501Z,18.86
2023-05-06T01:37:15.349Z,20.14
2023-05-06T01:39:42.120Z,20.99
2023-05-06T01:42:08.887Z,21.35
2023-05-06T01:44:36.018Z,21.57
2023-05-06T01:47:02.838Z,21.78
2023-05-06T01:49:29.613Z,21.85
2023-05-06T01:51:56.421Z,22.05
2023-05-06T01:54:23.243Z,22.04
2023-05-06T01:56:50.017Z,22.14
2023-05-06T01:59:16.783Z,22.19
2023-05-06T02:01:43.687Z,22.35
2023-05-06T02:04:10.518Z,22.49
2023-05-06T02:06:37.310Z,22.47
2023-05-06T02:09:04.128Z,22.53
2023-05-06T02:11:30.923Z,22.61
2023-05-06T02:13:58.212Z,22.70
2023-05-06T02:16:25.009Z,22.14
2023-05-06T02:18:52.219Z,19.85
2023-05-06T02:21:19.011Z,18.77
2023-05-06T02:23:45.782Z,19.57
2023-05-06T02:26:12.574Z,20.63
2023-05-06T02:28:39.325Z,21.22
2023-05-06T02:31:06.169Z,21.49
2023-05-06T02:33:33.048Z,21.77
2023-05-06T02:35:59.774Z,21.85
2023-05-06T02:38:26.677Z,21.98
2023-05-06T02:40:53.459Z,22.18
2023-05-06T02:43:20.216Z,22.10
2023-05-06T02:45:46.971Z,22.13
2023-05-06T02:48:13.813Z,22.22
2023-05-06T02:50:41.051Z,22.31
2023-05-06T02:53:09.247Z,22.44
2023-05-06T02:55:36.293Z,22.55
2023-05-06T02:58:03.086Z,22.67
2023-05-06T03:00:29.880Z,22.63
2023-05-06T03:02:56.689Z,22.71
2023-05-06T03:05:23.455Z,21.03
2023-05-06T03:07:50.216Z,19.39
2023-05-06T03:10:17.045Z,18.82
2023-05-06T03:12:43.878Z,19.90
2023-05-06T03:15:11.068Z,20.83
2023-05-06T03:17:38.244Z,21.31
2023-05-06T03:20:05.438Z,21.55
2023-05-06T03:22:32.196Z,21.76
2023-05-06T03:24:58.973Z,21.82
2023-05-06T03:27:25.726Z,21.97
2023-05-06T03:29:52.537Z,22.10
2023-05-06T03:32:19.326Z,22.22
2023-05-06T03:34:46.066Z,22.28
2023-05-06T03:37:12.825Z,22.34
2023-05-06T03:39:39.601Z,22.34
2023-05-06T03:42:08.610Z,22.48
2023-05-06T03:44:36.250Z,22.64
2023-05-06T03:47:03.140Z,22.70
2023-05-06T03:49:29.918Z,22.71
2023-05-06T03:51:56.867Z,20.43
2023-05-06T03:54:23.627Z,19.38
2023-05-06T03:56:50.453Z,19.18
2023-05-06T03:59:17.303Z,20.21
2023-05-06T04:01:44.110Z,20.99
2023-05-06T04:04:10.932Z,21.42
2023-05-06T04:06:37.706Z,21.60
2023-05-06T04:09:06.379Z,21.74
2023-05-06T04:11:33.189Z,21.91
2023-05-06T04:13:59.973Z,21.99
2023-05-06T04:16:26.810Z,22.17
2023-05-06T04:18:53.610Z,22.14
2023-05-06T04:21:20.354Z,22.27
2023-05-06T04:23:47.548Z,22.31
2023-05-06T04:26:14.332Z,22.47
2023-05-06T04:28:41.103Z,22.48
2023-05-06T04:31:08.930Z,22.61
2023-05-06T04:33:35.779Z,22.74
2023-05-06T04:36:03.344Z,22.66
2023-05-06T04:38:31.929Z,21.11
2023-05-06T04:40:59.350Z,19.55
2023-05-06T04:43:27.465Z,18.95
2023-05-06T04:45:55.184Z,19.85
2023-05-06T04:48:22.331Z,20.84
2023-05-06T04:50:49.141Z,21.29
2023-05-06T04:53:15.950Z,21.47
2023-05-06T04:55:42.709Z,21.70
2023-05-06T04:58:09.469Z,21.87
2023-05-06T05:00:36.242Z,22.00
2023-05-06T05:03:03.106Z,21.98
2023-05-06T05:05:30.337Z,22.13
2023-05-06T05:07:57.234Z,22.19
2023-05-06T05:10:24.009Z,22.39
2023-05-06T05:12:50.851Z,22.47
2023-05-06T05:15:17.717Z,22.46
2023-05-06T05:17:44.537Z,22.61
2023-05-06T05:20:11.296Z,22.62
2023-05-06T05:22:38.395Z,22.67
2023-05-06T05:25:06.338Z,22.35
2023-05-06T05:27:34.522Z,20.07
2023-05-06T05:30:01.628Z,18.72
2023-05-06T05:32:28.511Z,19.52
2023-05-06T05:34:55.419Z,20.57
2023-05-06T05:37:22.282Z,21.16
2023-05-06T05:39:49.062Z,21.49
2023-05-06T05:42:15.801Z,21.64
2023-05-06T05:44:42.553Z,21.87
2023-05-06T05:47:09.510Z,22.02
2023-05-06T05:49:36.274Z,22.07
2023-05-06T05:52:03.499Z,22.06
2023-05-06T05:54:30.265Z,22.17
2023-05-06T05:56:57.877Z,22.21
2023-05-06T05:59:24.638Z,22.43
2023-05-06T06:01:51.388Z,22.42
2023-05-06T06:04:18.285Z,22.50
2023-05-06T06:06:45.096Z,22.57
2023-05-06T06:09:11.974Z,22.65
2023-05-06T06:11:38.732Z,22.59
2023-05-06T06:14:05.486Z,20.26
2023-05-06T06:16:32.343Z,18.91
2023-05-06T06:18:59.155Z,19.06
2023-05-06T06:21:25.930Z,20.17
2023-05-06T06:23:52.675Z,20.97
2023-05-06T06:26:19.490Z,21.42
2023-05-06T06:28:46.250Z,21.60
2023-05-06T06:31:13.069Z,21.73
2023-05-06T06:33:39.840Z,21.87
2023-05-06T06:36:06.726Z,21.92
2023-05-06T06:38:33.547Z,22.15
2023-05-06T06:41:00.403Z,22.18
2023-05-06T06:43:27.162Z,22.24
2023-05-06T06:45:53.934Z,22.31
2023-05-06T06:48:20.745Z,22.44
2023-05-06T06:50:47.563Z,22.46
2023-05-06T06:53:14.328Z,22.51
2023-05-06T06:55:41.069Z,22.62
2023-05-06T06:58:07.816Z,22.67
2023-05-06T07:00:34.595Z,22.22
2023-05-06T07:03:01.377Z,19.70
2023-05-06T07:05:28.275Z,18.65
2023-05-06T07:07:55.569Z,19.45
2023-05-06T07:10:22.458Z,20.52
2023-05-06T07:12:49.242Z,21.21
2023-05-06T07:15:16.049Z,21.45
2023-05-06T07:17:42.866Z,21.71
2023-05-06T07:20:09.716Z,21.77
2023-05-06T07:22:36.961Z,21.99
2023-05-06T07:25:03.730Z,22.18
2023-05-06T07:27:30.765Z,22.20
2023-05-06T07:29:57.600Z,22.17
2023-05-06T07:32:24.374Z,22.28
2023-05-06T07:34:51.169Z,22.31
2023-05-06T07:37:17.917Z,22.39
2023-05-06T07:39:44.891Z,22.54
2023-05-06T07:42:13.072Z,22.60
2023-05-06T07:44:40.005Z,22.61
2023-05-06T07:47:06.901Z,20.92
2023-05-06T07:49:34.961Z,19.28
2023-05-06T07:52:03.413Z,18.57
2023-05-06T07:54:31.510Z,19.92
2023-05-06T07:56:58.331Z,20.84
2023-05-06T07:59:25.160Z,21.20
2023-05-06T08:01:52.052Z,21.55
2023-05-06T08:04:18.887Z,21.76
2023-05-06T08:06:45.702Z,21.83
2023-05-06T08:09:14.859Z,21.89
2023-05-06T08:11:46.663Z,22.11
2023-05-06T08:14:13.408Z,22.10
2023-05-06T08:16:40.226Z,22.16
2023-05-06T08:19:07.093Z,22.18
2023-05-06T08:21:34.106Z,22.32
2023-05-06T08:24:00.890Z,22.37
2023-05-06T08:26:27.670Z,22.46
2023-05-06T08:28:56.065Z,22.63
2023-05-06T08:31:22.811Z,22.57
2023-05-06T08:33:49.624Z,22.72
2023-05-06T08:36:16.365Z,21.33
2023-05-06T08:38:48.942Z,19.83
2023-05-06T08:41:15.713Z,19.45
2023-05-06T08:43:42.533Z,20.76
2023-05-06T08:46:09.479Z,21.30
2023-05-06T08:48:37.348Z,21.62
2023-05-06T08:51:04.164Z,21.80
2023-05-06T08:53:30.921Z,21.95
2023-05-06T08:55:57.693Z,22.13
2023-05-06T08:58:24.492Z,22.13
2023-05-06T09:00:51.386Z,22.30
2023-05-06T09:03:18.407Z,22.32
2023-05-06T09:05:45.254Z,22.41
2023-05-06T09:08:12.103Z,22.49
2023-05-06T09:10:38.937Z,22.60
2023-05-06T09:13:05.956Z,22.74
2023-05-06T09:15:32.730Z,22.59
2023-05-06T09:17:59.599Z,20.35
2023-05-06T09:20:26.761Z,19.38
2023-05-06T09:22:53.837Z,20.28
2023-05-06T09:25:20.645Z,21.06
2023-05-06T09:27:47.392Z,21.55
2023-05-06T09:30:14.333Z,21.81
2023-05-06T09:32:41.847Z,21.99
2023-05-06T09:35:08.933Z,22.04
2023-05-06T09:37:36.199Z,22.13
2023-05-06T09:40:03.115Z,22.31
2023-05-06T09:42:29.916Z,22.30
2023-05-06T09:44:58.110Z,22.45
2023-05-06T09:47:26.020Z,22.52
2023-05-06T09:49:52.786Z,22.68
2023-05-06T09:52:20.661Z,21.47
2023-05-06T09:54:47.520Z,19.91
2023-05-06T09:57:15.148Z,19.43
2023-05-06T09:59:41.884Z,20.70
2023-05-06T10:02:08.704Z,21.42
2023-05-06T10:04:35.858Z,21.76
2023-05-06T10:07:02.960Z,22.05
2023-05-06T10:09:29.719Z,22.03
2023-05-06T10:11:56.507Z,22.27
2023-05-06T10:14:23.274Z,22.21
2023-05-06T10:16:50.066Z,22.31
2023-05-06T10:19:16.815Z,22.40
2023-05-06T10:21:43.555Z,22.47
2023-05-06T10:24:10.342Z,22.60
2023-05-06T10:26:37.364Z,22.67
2023-05-06T10:29:04.758Z,22.74
2023-05-06T10:31:31.565Z,20.56
2023-05-06T10:33:58.342Z,19.56
2023-05-06T10:36:25.203Z,19.93
2023-05-06T10:38:54.598Z,21.10
2023-05-06T10:41:22.111Z,21.61
2023-05-06T10:43:56.600Z,21.79
2023-05-06T10:46:23.568Z,21.98
2023-05-06T10:48:50.316Z,22.03
2023-05-06T10:51:17.124Z,22.24
2023-05-06T10:53:43.855Z,22.21
2023-05-06T10:56:10.621Z,22.30
2023-05-06T10:58:37.386Z,22.38
2023-05-06T11:01:04.179Z,22.57
2023-05-06T11:03:30.994Z,22.70
2023-05-06T11:05:57.810Z,22.73
2023-05-06T11:08:24.682Z,20.21
2023-05-06T11:10:51.745Z,19.40
2023-05-06T11:13:18.971Z,20.02
2023-05-06T11:15:46.300Z,21.12
2023-05-06T11:18:13.051Z,21.48
2023-05-06T11:20:39.807Z,21.82
2023-05-06T11:23:06.621Z,21.92
2023-05-06T11:25:33.376Z,22.03
2023-05-06T11:28:00.430Z,22.26
2023-05-06T11:30:27.173Z,22.26
2023-05-06T11:32:53.960Z,22.39
2023-05-06T11:35:22.791Z,22.36
2023-05-06T11:37:49.576Z,22.45
2023-05-06T11:40:16.449Z,22.60
2023-05-06T11:42:43.241Z,22.70
2023-05-06T11:45:10.041Z,22.16
2023-05-06T11:47:36.776Z,19.85
2023-05-06T11:50:07.285Z,19.36
2023-05-06T11:52:34.068Z,20.52
2023-05-06T11:55:00.851Z,21.41
2023-05-06T11:57:27.613Z,21.69
2023-05-06T11:59:55.809Z,21.78
2023-05-06T12:02:22.650Z,22.00
2023-05-06T12:04:53.079Z,22.18
2023-05-06T12:07:19.921Z,22.22
2023-05-06T12:09:46.973Z,22.25
2023-05-06T12:12:13.764Z,22.39
2023-05-06T12:14:40.611Z,22.49
2023-05-06T12:17:07.376Z,22.57
2023-05-06T12:19:34.143Z,22.61
2023-05-06T12:22:01.050Z,22.71
2023-05-06T12:24:28.953Z,20.67
2023-05-06T12:26:56.050Z,19.76
2023-05-06T12:29:22.794Z,19.92
2023-05-06T12:31:49.642Z,21.10
2023-05-06T12:34:17.725Z,21.50
2023-05-06T12:36:44.509Z,21.77
2023-05-06T12:39:14.117Z,21.97
2023-05-06T12:41:41.043Z,22.09
2023-05-06T12:44:07.812Z,22.17
2023-05-06T12:46:34.621Z,22.24
2023-05-06T12:49:01.692Z,22.37
2023-05-06T12:51:28.742Z,22.53
2023-05-06T12:53:55.557Z,22.63
2023-05-06T12:56:22.423Z,22.56
2023-05-06T12:58:49.170Z,22.24
2023-05-06T13:01:16.007Z,19.98
2023-05-06T13:03:42.803Z,19.39
2023-05-06T13:06:09.615Z,20.40
2023-05-06T13:08:36.411Z,21.22
2023-05-06T13:11:03.729Z,21.63
2023-05-06T13:13:30.820Z,21.78
2023-05-06T13:15:57.594Z,22.00
2023-05-06T13:18:24.381Z,22.11
2023-05-06T13:20:51.535Z,22.33
2023-05-06T13:23:19.308Z,22.31
2023-05-06T13:26:00.730Z,22.45
2023-05-06T13:28:30.056Z,22.52
2023-05-06T13:30:56.929Z,22.50
2023-05-06T13:33:23.722Z,22.61
2023-05-06T13:35:50.525Z,22.58
2023-05-06T13:38:17.306Z,20.19
2023-05-06T13:40:44.051Z,19.60
2023-05-06T13:43:11.305Z,20.31
2023-05-06T13:45:38.217Z,21.29
2023-05-06T13:48:05.053Z,21.67
2023-05-06T13:50:31.852Z,21.80
2023-05-06T13:52:58.623Z,21.89
2023-05-06T13:55:25.545Z,22.10
2023-05-06T13:57:52.315Z,22.24
2023-05-06T14:00:19.074Z,22.36
2023-05-06T14:02:45.961Z,22.53
2023-05-06T14:05:13.072Z,22.52
2023-05-06T14:07:40.607Z,22.58
2023-05-06T14:10:07.436Z,22.66
2023-05-06T14:12:34.267Z,22.62
2023-05-06T14:15:01.253Z,21.06
2023-05-06T14:17:28.026Z,19.68
2023-05-06T14:19:54.804Z,19.58
2023-05-06T14:22:21.581Z,20.89
2023-05-06T14:24:48.459Z,21.47
2023-05-06T14:27:15.358Z,21.69
2023-05-06T14:29:43.098Z,21.87
2023-05-06T14:32:09.872Z,21.97
2023-05-06T14:34:36.828Z,22.20
2023-05-06T14:37:03.637Z,22.40
2023-05-06T14:39:30.492Z,22.37
2023-05-06T14:41:57.811Z,22.35
2023-05-06T14:44:24.596Z,22.53
2023-05-06T14:46:51.450Z,22.68
2023-05-06T14:49:18.273Z,22.74
2023-05-06T14:51:45.459Z,22.78
2023-05-06T14:54:12.204Z,20.63
2023-05-06T14:56:38.959Z,19.56
2023-05-06T14:59:05.759Z,20.06
2023-05-06T15:01:33.520Z,21.26
2023-05-06T15:04:00.377Z,21.60
2023-05-06T15:06:27.227Z,21.87
2023-05-06T15:08:53.991Z,21.98
2023-05-06T15:11:20.823Z,22.12
2023-05-06T15:13:47.580Z,22.25
2023-05-06T15:16:14.345Z,22.42
2023-05-06T15:18:41.944Z,22.40
2023-05-06T15:21:08.786Z,22.41
2023-05-06T15:23:35.517Z,22.52
2023-05-06T15:26:02.293Z,22.74
2023-05-06T15:28:29.062Z,22.71
2023-05-06T15:30:55.840Z,20.38
2023-05-06T15:33:22.647Z,19.41
2023-05-06T15:35:49.412Z,19.98
2023-05-06T15:38:16.157Z,21.09
2023-05-06T15:40:42.892Z,21.52
2023-05-06T15:43:09.831Z,21.78
2023-05-06T15:45:37.470Z,22.01
2023-05-06T15:48:04.230Z,22.10
2023-05-06T15:50:33.851Z,22.17
2023-05-06T15:53:01.849Z,22.32
2023-05-06T15:55:28.833Z,22.46
2023-05-06T15:57:56.284Z,22.50
2023-05-06T16:00:23.933Z,22.56
2023-05-06T16:02:50.787Z,22.70
2023-05-06T16:05:17.687Z,22.74
2023-05-06T16:07:44.463Z,20.76
2023-05-06T16:10:11.556Z,19.56
2023-05-06T16:12:38.803Z,19.96
2023-05-06T16:15:05.561Z,20.90
2023-05-06T16:17:37.271Z,21.46
2023-05-06T16:20:04.360Z,21.74
2023-05-06T16:22:31.159Z,21.94
2023-05-06T16:24:58.063Z,22.03
2023-05-06T16:27:27.356Z,22.17
2023-05-06T16:29:54.111Z,22.35
2023-05-06T16:32:20.856Z,22.33
2023-05-06T16:34:47.622Z,22.49
2023-05-06T16:37:14.473Z,22.56
2023-05-06T16:39:41.226Z,22.62
2023-05-06T16:42:07.997Z,22.82
2023-05-06T16:44:35.037Z,22.18
2023-05-06T16:47:01.976Z,20.04
2023-05-06T16:49:28.808Z,19.05
2023-05-06T16:51:57.104Z,19.70
2023-05-06T16:54:23.991Z,20.56
2023-05-06T16:56:52.672Z,21.16
2023-05-06T16:59:21.969Z,21.47
2023-05-06T17:01:49.081Z,21.62
2023-05-06T17:04:16.174Z,21.83
2023-05-06T17:06:42.898Z,21.96
2023-05-06T17:09:10.049Z,22.13
2023-05-06T17:11:36.993Z,22.14
2023-05-06T17:14:03.800Z,22.24
2023-05-06T17:16:30.568Z,22.38
2023-05-06T17:18:57.394Z,22.39
2023-05-06T17:21:24.815Z,22.48
2023-05-06T17:23:54.409Z,22.62
2023-05-06T17:26:21.342Z,22.65
2023-05-06T17:28:48.215Z,21.20
2023-05-06T17:31:15.893Z,19.50
2023-05-06T17:33:42.715Z,18.85
2023-05-06T17:36:09.444Z,19.82
2023-05-06T17:38:36.309Z,20.74
2023-05-06T17:41:03.074Z,21.31
2023-05-06T17:43:29.829Z,21.60
2023-05-06T17:45:56.882Z,21.68
2023-05-06T17:48:23.715Z,21.95
2023-05-06T17:50:50.562Z,22.00
2023-05-06T17:53:17.286Z,22.12
2023-05-06T17:55:44.110Z,22.31
2023-05-06T17:58:11.685Z,22.36
2023-05-06T18:00:38.472Z,22.39
2023-05-06T18:03:05.833Z,22.44
2023-05-06T18:05:32.674Z,22.56
2023-05-06T18:07:59.496Z,22.62
2023-05-06T18:10:26.310Z,22.61
2023-05-06T18:12:53.541Z,20.91
2023-05-06T18:15:20.293Z,19.20
2023-05-06T18:17:47.196Z,18.83
2023-05-06T18:20:13.966Z,19.87
2023-05-06T18:22:42.649Z,20.77
2023-05-06T18:25:09.565Z,21.22
2023-05-06T18:27:37.003Z,21.55
2023-05-06T18:30:04.514Z,21.75
2023-05-06T18:32:31.628Z,21.76
2023-05-06T18:34:58.488Z,21.92
2023-05-06T18:37:25.236Z,21.95
2023-05-06T18:39:52.122Z,22.14
2023-05-06T18:42:18.960Z,22.23
2023-05-06T18:44:45.752Z,22.31
2023-05-06T18:47:12.533Z,22.42
2023-05-06T18:49:39.348Z,22.52
2023-05-06T18:52:06.150Z,22.50
2023-05-06T18:54:32.956Z,22.59
2023-05-06T18:57:00.869Z,22.71
2023-05-06T18:59:27.666Z,21.73
2023-05-06T19:01:54.419Z,19.70
2023-05-06T19:04:21.203Z,18.74
2023-05-06T19:06:47.956Z,19.73
2023-05-06T19:09:14.737Z,20.53
2023-05-06T19:11:41.544Z,21.25
2023-05-06T19:14:08.642Z,21.42
2023-05-06T19:16:35.651Z,21.69
2023-05-06T19:19:03.296Z,21.84
2023-05-06T19:21:30.060Z,21.93
2023-05-06T19:23:59.652Z,22.06
2023-05-06T19:26:26.836Z,22.13
2023-05-06T19:28:53.995Z,22.24
2023-05-06T19:31:20.876Z,22.32
2023-05-06T19:33:47.662Z,22.45
2023-05-06T19:36:16.167Z,22.52
2023-05-06T19:38:42.919Z,22.57
2023-05-06T19:41:10.816Z,22.60
2023-05-06T19:43:37.555Z,22.60
2023-05-06T19:46:06.192Z,22.72
2023-05-06T19:48:34.947Z,21.21
2023-05-06T19:51:03.503Z,19.29
2023-05-06T19:53:30.260Z,18.73
2023-05-06T19:55:59.059Z,19.87
2023-05-06T19:58:26.021Z,20.79
2023-05-06T20:00:52.866Z,21.23
2023-05-06T20:03:19.787Z,21.48
2023-05-06T20:05:46.717Z,21.79
2023-05-06T20:08:13.621Z,21.89
2023-05-06T20:10:40.463Z,21.91
2023-05-06T20:13:07.446Z,22.09
2023-05-06T20:15:35.643Z,22.18
2023-05-06T20:18:02.457Z,22.23
2023-05-06T20:20:34.074Z,22.28
2023-05-06T20:23:03.871Z,22.40
2023-05-06T20:25:30.991Z,22.53
2023-05-06T20:27:57.760Z,22.49
2023-05-06T20:30:24.558Z,22.68
2023-05-06T20:32:52.047Z,22.63
2023-05-06T20:35:19.118Z,22.84
2023-05-06T20:37:45.981Z,21.33
2023-05-06T20:40:12.774Z,19.61
2023-05-06T20:42:39.564Z,18.57
2023-05-06T20:45:06.321Z,19.81
2023-05-06T20:47:33.160Z,20.75
2023-05-06T20:49:59.960Z,21.25
2023-05-06T20:52:26.890Z,21.48
2023-05-06T20:54:53.743Z,21.78
2023-05-06T20:57:20.496Z,21.78
2023-05-06T20:59:49.443Z,21.95
2023-05-06T21:02:16.251Z,22.06
2023-05-06T21:04:43.078Z,22.06
2023-05-06T21:07:09.878Z,22.20
2023-05-06T21:09:37.951Z,22.33
2023-05-06T21:12:04.873Z,22.30
2023-05-06T21:14:31.798Z,22.45
2023-05-06T21:16:58.556Z,22.53
2023-05-06T21:19:25.308Z,22.60
2023-05-06T21:21:52.053Z,22.65
2023-05-06T21:24:18.854Z,22.37
2023-05-06T21:26:45.670Z,19.83
2023-05-06T21:29:12.475Z,18.69
2023-05-06T21:31:39.306Z,19.17
2023-05-06T21:34:07.849Z,20.33
2023-05-06T21:36:34.795Z,21.08
2023-05-06T21:39:01.728Z,21.39
2023-05-06T21:41:28.483Z,21.65
2023-05-06T21:43:55.251Z,21.71
2023-05-06T21:46:22.121Z,21.91
2023-05-06T21:48:48.940Z,21.94
2023-05-06T21:51:15.798Z,22.03
2023-05-06T21:53:42.732Z,22.19
2023-05-06T21:56:09.516Z,22.22
2023-05-06T21:58:36.310Z,22.33
2023-05-06T22:01:03.813Z,22.35
2023-05-06T22:03:30.676Z,22.40
2023-05-06T22:05:57.582Z,22.41
2023-05-06T22:08:25.027Z,22.60
2023-05-06T22:10:51.826Z,22.57
2023-05-06T22:13:19.186Z,22.79
2023-05-06T22:15:46.098Z,20.49
2023-05-06T22:18:13.785Z,18.46
2023-05-06T22:20:41.517Z,18.27
2023-05-06T22:23:08.386Z,19.79
2023-05-06T22:25:35.258Z,20.67
2023-05-06T22:28:02.041Z,21.12
2023-05-06T22:30:28.827Z,21.41
2023-05-06T22:32:55.719Z,21.56
2023-05-06T22:35:22.615Z,21.65
2023-05-06T22:37:49.390Z,21.76
2023-05-06T22:40:16.129Z,21.92
2023-05-06T22:42:42.968Z,21.97
2023-05-06T22:45:09.786Z,22.00
2023-05-06T22:47:36.691Z,22.05
2023-05-06T22:50:03.563Z,22.18
2023-05-06T22:52:30.301Z,22.40
2023-05-06T22:54:57.092Z,22.29
2023-05-06T22:57:25.168Z,22.37
2023-05-06T22:59:51.985Z,22.38
2023-05-06T23:02:18.753Z,22.61
2023-05-06T23:04:45.507Z,22.62
2023-05-06T23:07:13.700Z,22.66
2023-05-06T23:09:40.576Z,22.65
2023-05-06T23:12:07.621Z,22.87
2023-05-06T23:14:34.363Z,21.53
2023-05-06T23:17:01.198Z,19.24
2023-05-06T23:19:28.025Z,18.16
2023-05-06T23:21:54.791Z,19.46
2023-05-06T23:24:21.681Z,20.52
2023-05-06T23:26:48.474Z,21.07
2023-05-06T23:29:15.269Z,21.38
2023-05-06T23:31:42.105Z,21.54
2023-05-06T23:34:08.878Z,21.68
2023-05-06T23:36:35.798Z,21.78
2023-05-06T23:39:02.697Z,21.86
2023-05-06T23:41:29.474Z,22.06
2023-05-06T23:43:56.255Z,22.06
2023-05-06T23:46:23.065Z,22.21
2023-05-06T23:48:49.915Z,22.35
2023-05-06T23:51:16.691Z,22.29
2023-05-06T23:53:43.442Z,22.39
2023-05-06T23:56:10.261Z,22.47
2023-05-06T23:58:37.129Z,22.49
